sensor_id;sensor_type;location;lat;lon;timestamp;P1;durP1;ratioP1;P2;durP2;ratioP2
7013;SDS011;3547;50.774;12.918;2022-11-20T00:01:05;19.90;;;11.13;;
7013;SDS011;3547;50.774;12.918;2022-11-20T00:03:31;19.03;;;11.17;;
7013;SDS011;3547;50.774;12.918;2022-11-20T00:06:01;17.33;;;10.17;;
7013;SDS011;3547;50.774;12.918;2022-11-20T00:08:31;19.83;;;11.10;;
7013;SDS011;3547;50.774;12.918;2022-11-20T00:11:01;18.00;;;11.43;;
7013;SDS011;3547;50.774;12.918;2022-11-20T00:13:31;17.03;;;11.07;;
7013;SDS011;3547;50.774;12.918;2022-11-20T00:15:59;15.53;;;8.77;;
7013;SDS011;3547;50.774;12.918;2022-11-20T00:18:26;18.33;;;10.63;;
7013;SDS011;3547;50.774;12.918;2022-11-20T00:20:53;20.00;;;10.37;;
7013;SDS011;3547;50.774;12.918;2022-11-20T00:23:19;16.07;;;9.23;;
7013;SDS011;3547;50.774;12.918;2022-11-20T00:25:45;21.00;;;10.73;;
7013;SDS011;3547;50.774;12.918;2022-11-20T00:28:12;15.80;;;9.73;;
7013;SDS011;3547;50.774;12.918;2022-11-20T00:30:38;15.60;;;9.27;;
7013;SDS011;3547;50.774;12.918;2022-11-20T00:33:07;14.57;;;9.77;;
7013;SDS011;3547;50.774;12.918;2022-11-20T00:35:33;14.07;;;8.73;;
7013;SDS011;3547;50.774;12.918;2022-11-20T00:38:00;13.93;;;8.33;;
7013;SDS011;3547;50.774;12.918;2022-11-20T00:40:26;15.10;;;8.97;;
7013;SDS011;3547;50.774;12.918;2022-11-20T00:42:52;15.63;;;8.97;;
7013;SDS011;3547;50.774;12.918;2022-11-20T00:45:18;13.57;;;8.83;;
7013;SDS011;3547;50.774;12.918;2022-11-20T00:47:44;13.53;;;7.90;;
7013;SDS011;3547;50.774;12.918;2022-11-20T00:50:10;13.83;;;8.63;;
7013;SDS011;3547;50.774;12.918;2022-11-20T00:52:36;16.87;;;8.43;;
7013;SDS011;3547;50.774;12.918;2022-11-20T00:55:03;17.73;;;10.40;;
7013;SDS011;3547;50.774;12.918;2022-11-20T00:57:29;16.33;;;8.27;;
7013;SDS011;3547;50.774;12.918;2022-11-20T00:59:55;14.40;;;8.77;;
7013;SDS011;3547;50.774;12.918;2022-11-20T01:02:21;16.00;;;8.97;;
7013;SDS011;3547;50.774;12.918;2022-11-20T01:04:47;13.30;;;8.33;;
7013;SDS011;3547;50.774;12.918;2022-11-20T01:07:14;15.47;;;9.47;;
7013;SDS011;3547;50.774;12.918;2022-11-20T01:09:40;14.23;;;10.20;;
7013;SDS011;3547;50.774;12.918;2022-11-20T01:12:06;13.40;;;8.27;;
7013;SDS011;3547;50.774;12.918;2022-11-20T01:14:32;18.63;;;8.93;;
7013;SDS011;3547;50.774;12.918;2022-11-20T01:16:58;16.10;;;8.97;;
7013;SDS011;3547;50.774;12.918;2022-11-20T01:19:24;18.90;;;11.57;;
7013;SDS011;3547;50.774;12.918;2022-11-20T01:21:51;21.40;;;12.03;;
7013;SDS011;3547;50.774;12.918;2022-11-20T01:24:19;21.03;;;12.40;;
7013;SDS011;3547;50.774;12.918;2022-11-20T01:26:47;22.67;;;11.57;;
7013;SDS011;3547;50.774;12.918;2022-11-20T01:29:16;15.40;;;9.80;;
7013;SDS011;3547;50.774;12.918;2022-11-20T01:31:47;16.40;;;9.07;;
7013;SDS011;3547;50.774;12.918;2022-11-20T01:34:14;15.20;;;8.37;;
7013;SDS011;3547;50.774;12.918;2022-11-20T01:36:42;15.37;;;9.03;;
7013;SDS011;3547;50.774;12.918;2022-11-20T01:39:19;16.10;;;8.83;;
7013;SDS011;3547;50.774;12.918;2022-11-20T01:41:48;13.10;;;7.47;;
7013;SDS011;3547;50.774;12.918;2022-11-20T01:47:30;12.13;;;6.87;;
7013;SDS011;3547;50.774;12.918;2022-11-20T01:50:06;11.20;;;7.00;;
7013;SDS011;3547;50.774;12.918;2022-11-20T01:52:36;16.27;;;7.93;;
7013;SDS011;3547;50.774;12.918;2022-11-20T01:55:13;13.57;;;7.93;;
7013;SDS011;3547;50.774;12.918;2022-11-20T01:57:43;15.37;;;7.87;;
7013;SDS011;3547;50.774;12.918;2022-11-20T02:00:11;15.87;;;9.87;;
7013;SDS011;3547;50.774;12.918;2022-11-20T02:02:44;13.67;;;8.17;;
7013;SDS011;3547;50.774;12.918;2022-11-20T02:05:24;11.37;;;6.87;;
7013;SDS011;3547;50.774;12.918;2022-11-20T02:08:13;13.90;;;8.33;;
7013;SDS011;3547;50.774;12.918;2022-11-20T02:10:39;14.60;;;8.90;;
7013;SDS011;3547;50.774;12.918;2022-11-20T02:13:05;16.93;;;9.23;;
7013;SDS011;3547;50.774;12.918;2022-11-20T02:15:50;14.80;;;7.77;;
7013;SDS011;3547;50.774;12.918;2022-11-20T02:18:17;11.80;;;7.43;;
7013;SDS011;3547;50.774;12.918;2022-11-20T02:20:47;9.60;;;6.23;;
7013;SDS011;3547;50.774;12.918;2022-11-20T02:23:38;10.33;;;6.77;;
7013;SDS011;3547;50.774;12.918;2022-11-20T02:26:10;11.33;;;5.93;;
7013;SDS011;3547;50.774;12.918;2022-11-20T02:28:38;10.23;;;6.90;;
7013;SDS011;3547;50.774;12.918;2022-11-20T02:31:05;13.23;;;7.27;;
7013;SDS011;3547;50.774;12.918;2022-11-20T02:33:31;13.30;;;7.53;;
7013;SDS011;3547;50.774;12.918;2022-11-20T02:35:57;11.37;;;6.67;;
7013;SDS011;3547;50.774;12.918;2022-11-20T02:38:23;13.63;;;7.10;;
7013;SDS011;3547;50.774;12.918;2022-11-20T02:40:49;11.77;;;7.67;;
7013;SDS011;3547;50.774;12.918;2022-11-20T02:43:15;16.43;;;8.73;;
7013;SDS011;3547;50.774;12.918;2022-11-20T02:45:42;14.13;;;7.73;;
7013;SDS011;3547;50.774;12.918;2022-11-20T02:48:08;12.63;;;8.03;;
7013;SDS011;3547;50.774;12.918;2022-11-20T02:50:36;13.87;;;7.73;;
7013;SDS011;3547;50.774;12.918;2022-11-20T02:53:04;14.07;;;6.97;;
7013;SDS011;3547;50.774;12.918;2022-11-20T02:55:30;14.10;;;7.60;;
7013;SDS011;3547;50.774;12.918;2022-11-20T02:57:56;14.37;;;7.33;;
7013;SDS011;3547;50.774;12.918;2022-11-20T03:00:22;12.83;;;7.77;;
7013;SDS011;3547;50.774;12.918;2022-11-20T03:02:48;13.70;;;7.67;;
7013;SDS011;3547;50.774;12.918;2022-11-20T03:05:14;13.07;;;7.70;;
7013;SDS011;3547;50.774;12.918;2022-11-20T03:07:41;12.53;;;7.93;;
7013;SDS011;3547;50.774;12.918;2022-11-20T03:10:08;15.50;;;9.97;;
7013;SDS011;3547;50.774;12.918;2022-11-20T03:12:34;19.60;;;11.43;;
7013;SDS011;3547;50.774;12.918;2022-11-20T03:15:01;18.33;;;10.80;;
7013;SDS011;3547;50.774;12.918;2022-11-20T03:17:27;22.37;;;12.17;;
7013;SDS011;3547;50.774;12.918;2022-11-20T03:19:54;19.43;;;10.93;;
7013;SDS011;3547;50.774;12.918;2022-11-20T03:22:20;17.90;;;10.70;;
7013;SDS011;3547;50.774;12.918;2022-11-20T03:24:47;17.33;;;9.67;;
7013;SDS011;3547;50.774;12.918;2022-11-20T03:27:13;16.13;;;8.77;;
7013;SDS011;3547;50.774;12.918;2022-11-20T03:29:39;17.23;;;9.93;;
7013;SDS011;3547;50.774;12.918;2022-11-20T03:32:05;16.23;;;9.07;;
7013;SDS011;3547;50.774;12.918;2022-11-20T03:34:31;13.37;;;9.17;;
7013;SDS011;3547;50.774;12.918;2022-11-20T03:36:57;14.97;;;9.67;;
7013;SDS011;3547;50.774;12.918;2022-11-20T03:39:23;15.77;;;9.27;;
7013;SDS011;3547;50.774;12.918;2022-11-20T03:41:50;18.83;;;10.43;;
7013;SDS011;3547;50.774;12.918;2022-11-20T03:44:16;17.93;;;10.60;;
7013;SDS011;3547;50.774;12.918;2022-11-20T03:46:42;15.93;;;9.30;;
7013;SDS011;3547;50.774;12.918;2022-11-20T03:49:08;15.90;;;9.37;;
7013;SDS011;3547;50.774;12.918;2022-11-20T03:51:35;17.07;;;9.20;;
7013;SDS011;3547;50.774;12.918;2022-11-20T03:54:03;16.80;;;9.00;;
7013;SDS011;3547;50.774;12.918;2022-11-20T03:56:32;15.53;;;8.40;;
7013;SDS011;3547;50.774;12.918;2022-11-20T03:59:00;13.67;;;8.43;;
7013;SDS011;3547;50.774;12.918;2022-11-20T04:01:30;12.77;;;7.07;;
7013;SDS011;3547;50.774;12.918;2022-11-20T04:03:58;14.03;;;8.30;;
7013;SDS011;3547;50.774;12.918;2022-11-20T04:06:25;15.47;;;8.27;;
7013;SDS011;3547;50.774;12.918;2022-11-20T04:08:56;11.33;;;7.53;;
7013;SDS011;3547;50.774;12.918;2022-11-20T04:11:24;14.50;;;8.23;;
7013;SDS011;3547;50.774;12.918;2022-11-20T04:13:53;13.30;;;6.73;;
7013;SDS011;3547;50.774;12.918;2022-11-20T04:16:21;12.20;;;7.13;;
7013;SDS011;3547;50.774;12.918;2022-11-20T04:18:52;11.23;;;6.53;;
7013;SDS011;3547;50.774;12.918;2022-11-20T04:21:19;10.10;;;6.20;;
7013;SDS011;3547;50.774;12.918;2022-11-20T04:23:45;11.23;;;6.93;;
7013;SDS011;3547;50.774;12.918;2022-11-20T04:26:11;12.03;;;6.93;;
7013;SDS011;3547;50.774;12.918;2022-11-20T04:28:39;11.70;;;6.87;;
7013;SDS011;3547;50.774;12.918;2022-11-20T04:31:06;12.77;;;6.87;;
7013;SDS011;3547;50.774;12.918;2022-11-20T04:33:34;9.77;;;5.83;;
7013;SDS011;3547;50.774;12.918;2022-11-20T04:36:02;13.00;;;7.40;;
7013;SDS011;3547;50.774;12.918;2022-11-20T04:38:33;10.33;;;6.27;;
7013;SDS011;3547;50.774;12.918;2022-11-20T04:41:00;8.97;;;5.63;;
7013;SDS011;3547;50.774;12.918;2022-11-20T04:43:28;10.70;;;6.07;;
7013;SDS011;3547;50.774;12.918;2022-11-20T04:45:55;8.43;;;5.67;;
7013;SDS011;3547;50.774;12.918;2022-11-20T04:48:22;14.33;;;7.20;;
7013;SDS011;3547;50.774;12.918;2022-11-20T04:50:49;12.93;;;8.40;;
7013;SDS011;3547;50.774;12.918;2022-11-20T04:53:16;16.63;;;9.13;;
7013;SDS011;3547;50.774;12.918;2022-11-20T04:55:42;17.57;;;8.73;;
7013;SDS011;3547;50.774;12.918;2022-11-20T04:58:10;17.67;;;9.53;;
7013;SDS011;3547;50.774;12.918;2022-11-20T05:00:36;19.07;;;9.93;;
7013;SDS011;3547;50.774;12.918;2022-11-20T05:03:03;12.47;;;7.47;;
7013;SDS011;3547;50.774;12.918;2022-11-20T05:05:29;13.53;;;7.53;;
7013;SDS011;3547;50.774;12.918;2022-11-20T05:07:56;21.97;;;10.50;;
7013;SDS011;3547;50.774;12.918;2022-11-20T05:10:23;16.20;;;9.90;;
7013;SDS011;3547;50.774;12.918;2022-11-20T05:12:50;17.10;;;9.80;;
7013;SDS011;3547;50.774;12.918;2022-11-20T05:15:16;15.30;;;9.57;;
7013;SDS011;3547;50.774;12.918;2022-11-20T05:17:47;12.20;;;7.80;;
7013;SDS011;3547;50.774;12.918;2022-11-20T05:20:17;14.70;;;8.40;;
7013;SDS011;3547;50.774;12.918;2022-11-20T05:22:43;12.83;;;7.50;;
7013;SDS011;3547;50.774;12.918;2022-11-20T05:25:10;15.20;;;9.23;;
7013;SDS011;3547;50.774;12.918;2022-11-20T05:27:36;13.63;;;8.40;;
7013;SDS011;3547;50.774;12.918;2022-11-20T05:30:05;14.87;;;8.43;;
7013;SDS011;3547;50.774;12.918;2022-11-20T05:32:32;13.57;;;8.50;;
7013;SDS011;3547;50.774;12.918;2022-11-20T05:34:58;16.60;;;8.60;;
7013;SDS011;3547;50.774;12.918;2022-11-20T05:37:24;11.77;;;7.43;;
7013;SDS011;3547;50.774;12.918;2022-11-20T05:39:51;11.20;;;6.23;;
7013;SDS011;3547;50.774;12.918;2022-11-20T05:42:17;10.33;;;6.77;;
7013;SDS011;3547;50.774;12.918;2022-11-20T05:45:02;10.27;;;6.70;;
7013;SDS011;3547;50.774;12.918;2022-11-20T05:47:32;8.77;;;5.33;;
7013;SDS011;3547;50.774;12.918;2022-11-20T05:50:00;13.43;;;7.30;;
7013;SDS011;3547;50.774;12.918;2022-11-20T05:52:29;10.83;;;7.40;;
7013;SDS011;3547;50.774;12.918;2022-11-20T05:54:56;12.03;;;7.47;;
7013;SDS011;3547;50.774;12.918;2022-11-20T05:57:23;10.90;;;5.77;;
7013;SDS011;3547;50.774;12.918;2022-11-20T05:59:49;10.93;;;6.47;;
7013;SDS011;3547;50.774;12.918;2022-11-20T06:02:15;11.10;;;7.60;;
7013;SDS011;3547;50.774;12.918;2022-11-20T06:04:41;11.53;;;6.43;;
7013;SDS011;3547;50.774;12.918;2022-11-20T06:07:08;17.63;;;8.10;;
7013;SDS011;3547;50.774;12.918;2022-11-20T06:09:34;9.93;;;7.13;;
7013;SDS011;3547;50.774;12.918;2022-11-20T06:12:00;11.70;;;6.60;;
7013;SDS011;3547;50.774;12.918;2022-11-20T06:14:26;11.57;;;7.07;;
7013;SDS011;3547;50.774;12.918;2022-11-20T06:16:52;11.60;;;6.57;;
7013;SDS011;3547;50.774;12.918;2022-11-20T06:19:18;11.80;;;7.13;;
7013;SDS011;3547;50.774;12.918;2022-11-20T06:21:44;14.00;;;7.50;;
7013;SDS011;3547;50.774;12.918;2022-11-20T06:24:12;12.97;;;7.33;;
7013;SDS011;3547;50.774;12.918;2022-11-20T06:26:38;14.73;;;7.07;;
7013;SDS011;3547;50.774;12.918;2022-11-20T06:29:05;11.03;;;6.10;;
7013;SDS011;3547;50.774;12.918;2022-11-20T06:31:31;12.03;;;7.70;;
7013;SDS011;3547;50.774;12.918;2022-11-20T06:34:06;11.40;;;6.70;;
7013;SDS011;3547;50.774;12.918;2022-11-20T06:36:32;7.77;;;5.20;;
7013;SDS011;3547;50.774;12.918;2022-11-20T06:38:59;8.33;;;5.30;;
7013;SDS011;3547;50.774;12.918;2022-11-20T06:41:25;9.50;;;5.53;;
7013;SDS011;3547;50.774;12.918;2022-11-20T06:43:53;15.03;;;7.73;;
7013;SDS011;3547;50.774;12.918;2022-11-20T06:46:19;12.77;;;7.37;;
7013;SDS011;3547;50.774;12.918;2022-11-20T06:48:49;12.10;;;7.77;;
7013;SDS011;3547;50.774;12.918;2022-11-20T06:51:16;11.57;;;7.10;;
7013;SDS011;3547;50.774;12.918;2022-11-20T06:53:42;9.03;;;5.13;;
7013;SDS011;3547;50.774;12.918;2022-11-20T06:56:08;7.80;;;4.93;;
7013;SDS011;3547;50.774;12.918;2022-11-20T06:58:35;9.70;;;5.33;;
7013;SDS011;3547;50.774;12.918;2022-11-20T07:01:03;7.27;;;5.07;;
7013;SDS011;3547;50.774;12.918;2022-11-20T07:03:32;13.23;;;7.23;;
7013;SDS011;3547;50.774;12.918;2022-11-20T07:05:58;25.60;;;13.87;;
7013;SDS011;3547;50.774;12.918;2022-11-20T07:08:26;17.40;;;9.70;;
7013;SDS011;3547;50.774;12.918;2022-11-20T07:10:56;17.37;;;10.13;;
7013;SDS011;3547;50.774;12.918;2022-11-20T07:13:25;18.97;;;10.33;;
7013;SDS011;3547;50.774;12.918;2022-11-20T07:15:52;18.30;;;10.20;;
7013;SDS011;3547;50.774;12.918;2022-11-20T07:18:19;15.77;;;10.03;;
7013;SDS011;3547;50.774;12.918;2022-11-20T07:20:45;14.53;;;8.57;;
7013;SDS011;3547;50.774;12.918;2022-11-20T07:23:11;14.00;;;7.57;;
7013;SDS011;3547;50.774;12.918;2022-11-20T07:25:37;13.10;;;7.63;;
7013;SDS011;3547;50.774;12.918;2022-11-20T07:28:03;15.10;;;8.13;;
7013;SDS011;3547;50.774;12.918;2022-11-20T07:30:29;12.37;;;8.00;;
7013;SDS011;3547;50.774;12.918;2022-11-20T07:32:56;15.43;;;7.87;;
7013;SDS011;3547;50.774;12.918;2022-11-20T07:35:23;16.67;;;10.50;;
7013;SDS011;3547;50.774;12.918;2022-11-20T07:37:49;19.57;;;10.53;;
7013;SDS011;3547;50.774;12.918;2022-11-20T07:40:17;19.97;;;11.37;;
7013;SDS011;3547;50.774;12.918;2022-11-20T07:42:53;16.03;;;9.60;;
7013;SDS011;3547;50.774;12.918;2022-11-20T07:45:22;19.57;;;12.57;;
7013;SDS011;3547;50.774;12.918;2022-11-20T07:47:51;19.07;;;13.03;;
7013;SDS011;3547;50.774;12.918;2022-11-20T07:50:17;18.07;;;10.77;;
7013;SDS011;3547;50.774;12.918;2022-11-20T07:52:44;14.37;;;9.00;;
7013;SDS011;3547;50.774;12.918;2022-11-20T07:55:11;19.70;;;10.37;;
7013;SDS011;3547;50.774;12.918;2022-11-20T07:57:37;16.60;;;9.23;;
7013;SDS011;3547;50.774;12.918;2022-11-20T08:00:04;20.83;;;11.97;;
7013;SDS011;3547;50.774;12.918;2022-11-20T08:02:36;16.00;;;10.63;;
7013;SDS011;3547;50.774;12.918;2022-11-20T08:05:04;22.40;;;11.27;;
7013;SDS011;3547;50.774;12.918;2022-11-20T08:07:37;19.33;;;11.30;;
7013;SDS011;3547;50.774;12.918;2022-11-20T08:10:05;18.87;;;11.40;;
7013;SDS011;3547;50.774;12.918;2022-11-20T08:12:32;17.13;;;10.57;;
7013;SDS011;3547;50.774;12.918;2022-11-20T08:15:16;20.43;;;11.30;;
7013;SDS011;3547;50.774;12.918;2022-11-20T08:17:43;19.33;;;10.13;;
7013;SDS011;3547;50.774;12.918;2022-11-20T08:20:09;11.20;;;7.03;;
7013;SDS011;3547;50.774;12.918;2022-11-20T08:22:36;21.80;;;12.43;;
7013;SDS011;3547;50.774;12.918;2022-11-20T08:25:02;24.17;;;12.73;;
7013;SDS011;3547;50.774;12.918;2022-11-20T08:27:28;18.37;;;12.00;;
7013;SDS011;3547;50.774;12.918;2022-11-20T08:29:56;20.03;;;12.73;;
7013;SDS011;3547;50.774;12.918;2022-11-20T08:32:22;17.10;;;10.80;;
7013;SDS011;3547;50.774;12.918;2022-11-20T08:34:48;20.13;;;12.33;;
7013;SDS011;3547;50.774;12.918;2022-11-20T08:37:14;21.60;;;12.67;;
7013;SDS011;3547;50.774;12.918;2022-11-20T08:39:41;23.37;;;13.23;;
7013;SDS011;3547;50.774;12.918;2022-11-20T08:42:07;19.97;;;11.73;;
7013;SDS011;3547;50.774;12.918;2022-11-20T08:44:33;21.30;;;11.20;;
7013;SDS011;3547;50.774;12.918;2022-11-20T08:47:00;22.30;;;10.70;;
7013;SDS011;3547;50.774;12.918;2022-11-20T08:49:26;17.20;;;9.67;;
7013;SDS011;3547;50.774;12.918;2022-11-20T08:51:52;19.27;;;9.43;;
7013;SDS011;3547;50.774;12.918;2022-11-20T08:54:20;12.70;;;6.67;;
7013;SDS011;3547;50.774;12.918;2022-11-20T08:56:47;13.00;;;7.10;;
7013;SDS011;3547;50.774;12.918;2022-11-20T08:59:13;17.60;;;9.13;;
7013;SDS011;3547;50.774;12.918;2022-11-20T09:01:40;17.03;;;9.63;;
7013;SDS011;3547;50.774;12.918;2022-11-20T09:04:06;24.87;;;13.07;;
7013;SDS011;3547;50.774;12.918;2022-11-20T09:06:32;25.10;;;15.53;;
7013;SDS011;3547;50.774;12.918;2022-11-20T09:08:58;14.23;;;9.80;;
7013;SDS011;3547;50.774;12.918;2022-11-20T09:11:24;11.37;;;7.80;;
7013;SDS011;3547;50.774;12.918;2022-11-20T09:13:50;14.43;;;8.03;;
7013;SDS011;3547;50.774;12.918;2022-11-20T09:16:16;16.33;;;8.30;;
7013;SDS011;3547;50.774;12.918;2022-11-20T09:18:43;12.87;;;8.37;;
7013;SDS011;3547;50.774;12.918;2022-11-20T09:21:10;16.73;;;9.20;;
7013;SDS011;3547;50.774;12.918;2022-11-20T09:23:38;13.97;;;8.40;;
7013;SDS011;3547;50.774;12.918;2022-11-20T09:26:04;10.17;;;6.17;;
7013;SDS011;3547;50.774;12.918;2022-11-20T09:28:32;12.70;;;6.87;;
7013;SDS011;3547;50.774;12.918;2022-11-20T09:30:58;9.37;;;6.53;;
7013;SDS011;3547;50.774;12.918;2022-11-20T09:33:25;13.63;;;7.47;;
7013;SDS011;3547;50.774;12.918;2022-11-20T09:35:51;10.80;;;7.60;;
7013;SDS011;3547;50.774;12.918;2022-11-20T09:38:17;14.43;;;7.60;;
7013;SDS011;3547;50.774;12.918;2022-11-20T09:40:45;9.13;;;5.43;;
7013;SDS011;3547;50.774;12.918;2022-11-20T09:43:32;10.30;;;6.30;;
7013;SDS011;3547;50.774;12.918;2022-11-20T09:46:21;16.67;;;11.33;;
7013;SDS011;3547;50.774;12.918;2022-11-20T09:49:27;23.10;;;14.67;;
7013;SDS011;3547;50.774;12.918;2022-11-20T09:52:00;20.73;;;14.57;;
7013;SDS011;3547;50.774;12.918;2022-11-20T09:54:37;18.70;;;12.13;;
7013;SDS011;3547;50.774;12.918;2022-11-20T09:57:13;18.83;;;10.50;;
7013;SDS011;3547;50.774;12.918;2022-11-20T09:59:54;15.03;;;8.73;;
7013;SDS011;3547;50.774;12.918;2022-11-20T10:02:35;16.53;;;9.80;;
7013;SDS011;3547;50.774;12.918;2022-11-20T10:05:11;15.80;;;8.43;;
7013;SDS011;3547;50.774;12.918;2022-11-20T10:10:52;17.37;;;11.07;;
7013;SDS011;3547;50.774;12.918;2022-11-20T10:30:12;12.20;;;6.90;;
7013;SDS011;3547;50.774;12.918;2022-11-20T10:32:41;9.93;;;6.53;;
7013;SDS011;3547;50.774;12.918;2022-11-20T10:35:18;11.17;;;7.07;;
7013;SDS011;3547;50.774;12.918;2022-11-20T10:38:00;8.87;;;6.23;;
7013;SDS011;3547;50.774;12.918;2022-11-20T10:40:52;10.80;;;7.33;;
7013;SDS011;3547;50.774;12.918;2022-11-20T10:43:19;13.50;;;8.17;;
7013;SDS011;3547;50.774;12.918;2022-11-20T10:48:27;20.00;;;7.50;;
7013;SDS011;3547;50.774;12.918;2022-11-20T10:56:39;9.80;;;5.93;;
7013;SDS011;3547;50.774;12.918;2022-11-20T11:02:14;12.77;;;7.07;;
7013;SDS011;3547;50.774;12.918;2022-11-20T11:04:49;11.60;;;6.37;;
7013;SDS011;3547;50.774;12.918;2022-11-20T11:09:58;12.47;;;6.43;;
7013;SDS011;3547;50.774;12.918;2022-11-20T11:12:25;14.23;;;7.07;;
7013;SDS011;3547;50.774;12.918;2022-11-20T11:14:57;12.13;;;7.17;;
7013;SDS011;3547;50.774;12.918;2022-11-20T11:20:00;11.43;;;6.43;;
7013;SDS011;3547;50.774;12.918;2022-11-20T11:22:30;11.93;;;6.50;;
7013;SDS011;3547;50.774;12.918;2022-11-20T11:24:58;9.57;;;6.27;;
7013;SDS011;3547;50.774;12.918;2022-11-20T11:27:25;10.23;;;5.73;;
7013;SDS011;3547;50.774;12.918;2022-11-20T11:30:00;10.60;;;6.07;;
7013;SDS011;3547;50.774;12.918;2022-11-20T11:32:47;12.63;;;6.90;;
7013;SDS011;3547;50.774;12.918;2022-11-20T11:37:45;10.73;;;6.63;;
7013;SDS011;3547;50.774;12.918;2022-11-20T11:40:13;15.63;;;7.57;;
7013;SDS011;3547;50.774;12.918;2022-11-20T11:42:46;10.63;;;6.87;;
7013;SDS011;3547;50.774;12.918;2022-11-20T11:45:26;13.47;;;7.40;;
7013;SDS011;3547;50.774;12.918;2022-11-20T11:47:53;13.47;;;7.33;;
7013;SDS011;3547;50.774;12.918;2022-11-20T11:50:29;11.73;;;7.57;;
7013;SDS011;3547;50.774;12.918;2022-11-20T11:58:02;12.40;;;6.73;;
7013;SDS011;3547;50.774;12.918;2022-11-20T12:00:59;13.13;;;7.00;;
7013;SDS011;3547;50.774;12.918;2022-11-20T12:03:39;11.77;;;7.00;;
7013;SDS011;3547;50.774;12.918;2022-11-20T12:06:12;12.80;;;7.70;;
7013;SDS011;3547;50.774;12.918;2022-11-20T12:13:48;12.07;;;6.40;;
7013;SDS011;3547;50.774;12.918;2022-11-20T12:16:26;8.47;;;6.37;;
7013;SDS011;3547;50.774;12.918;2022-11-20T12:18:53;12.90;;;7.33;;
7013;SDS011;3547;50.774;12.918;2022-11-20T12:21:22;11.93;;;7.50;;
7013;SDS011;3547;50.774;12.918;2022-11-20T12:39:51;13.20;;;7.37;;
7013;SDS011;3547;50.774;12.918;2022-11-20T12:42:23;12.10;;;6.70;;
7013;SDS011;3547;50.774;12.918;2022-11-20T12:45:30;9.10;;;5.60;;
7013;SDS011;3547;50.774;12.918;2022-11-20T13:01:45;11.07;;;6.73;;
7013;SDS011;3547;50.774;12.918;2022-11-20T13:06:57;15.67;;;6.73;;
7013;SDS011;3547;50.774;12.918;2022-11-20T13:09:24;12.43;;;6.97;;
7013;SDS011;3547;50.774;12.918;2022-11-20T13:14:43;15.70;;;7.20;;
7013;SDS011;3547;50.774;12.918;2022-11-20T13:17:18;12.67;;;7.30;;
7013;SDS011;3547;50.774;12.918;2022-11-20T13:19:55;11.63;;;7.80;;
7013;SDS011;3547;50.774;12.918;2022-11-20T13:22:25;13.67;;;8.17;;
7013;SDS011;3547;50.774;12.918;2022-11-20T13:24:52;9.43;;;6.40;;
7013;SDS011;3547;50.774;12.918;2022-11-20T13:27:19;12.70;;;7.50;;
7013;SDS011;3547;50.774;12.918;2022-11-20T13:30:31;10.97;;;7.30;;
7013;SDS011;3547;50.774;12.918;2022-11-20T13:33:22;9.23;;;6.07;;
7013;SDS011;3547;50.774;12.918;2022-11-20T13:35:59;14.20;;;7.70;;
7013;SDS011;3547;50.774;12.918;2022-11-20T13:38:40;13.67;;;7.40;;
7013;SDS011;3547;50.774;12.918;2022-11-20T13:41:22;13.53;;;7.23;;
7013;SDS011;3547;50.774;12.918;2022-11-20T13:46:42;13.47;;;7.47;;
7013;SDS011;3547;50.774;12.918;2022-11-20T13:49:26;12.43;;;6.93;;
7013;SDS011;3547;50.774;12.918;2022-11-20T13:57:41;10.97;;;7.00;;
7013;SDS011;3547;50.774;12.918;2022-11-20T14:00:15;15.43;;;7.60;;
7013;SDS011;3547;50.774;12.918;2022-11-20T14:02:44;15.53;;;7.60;;
7013;SDS011;3547;50.774;12.918;2022-11-20T14:05:39;12.60;;;7.10;;
7013;SDS011;3547;50.774;12.918;2022-11-20T14:08:17;9.13;;;6.30;;
7013;SDS011;3547;50.774;12.918;2022-11-20T14:14:02;11.47;;;6.83;;
7013;SDS011;3547;50.774;12.918;2022-11-20T14:16:32;12.97;;;7.30;;
7013;SDS011;3547;50.774;12.918;2022-11-20T14:21:45;12.93;;;7.70;;
7013;SDS011;3547;50.774;12.918;2022-11-20T14:24:21;16.73;;;10.70;;
7013;SDS011;3547;50.774;12.918;2022-11-20T14:26:49;11.53;;;7.30;;
7013;SDS011;3547;50.774;12.918;2022-11-20T14:29:17;11.70;;;6.83;;
7013;SDS011;3547;50.774;12.918;2022-11-20T14:31:45;13.20;;;7.40;;
7013;SDS011;3547;50.774;12.918;2022-11-20T14:34:20;14.07;;;6.97;;
7013;SDS011;3547;50.774;12.918;2022-11-20T14:36:50;10.83;;;6.77;;
7013;SDS011;3547;50.774;12.918;2022-11-20T14:39:21;10.70;;;6.37;;
7013;SDS011;3547;50.774;12.918;2022-11-20T14:41:54;11.00;;;6.50;;
7013;SDS011;3547;50.774;12.918;2022-11-20T14:44:21;8.60;;;5.33;;
7013;SDS011;3547;50.774;12.918;2022-11-20T14:47:00;11.70;;;7.57;;
7013;SDS011;3547;50.774;12.918;2022-11-20T14:49:29;11.77;;;6.43;;
7013;SDS011;3547;50.774;12.918;2022-11-20T14:52:01;12.00;;;6.60;;
7013;SDS011;3547;50.774;12.918;2022-11-20T14:54:43;9.33;;;6.17;;
7013;SDS011;3547;50.774;12.918;2022-11-20T14:57:19;11.53;;;6.67;;
7013;SDS011;3547;50.774;12.918;2022-11-20T14:59:49;9.87;;;6.13;;
7013;SDS011;3547;50.774;12.918;2022-11-20T15:02:15;8.13;;;4.90;;
7013;SDS011;3547;50.774;12.918;2022-11-20T15:07:26;10.17;;;6.37;;
7013;SDS011;3547;50.774;12.918;2022-11-20T15:12:38;9.70;;;5.73;;
7013;SDS011;3547;50.774;12.918;2022-11-20T15:15:12;9.30;;;5.50;;
7013;SDS011;3547;50.774;12.918;2022-11-20T15:17:43;9.10;;;5.37;;
7013;SDS011;3547;50.774;12.918;2022-11-20T15:20:13;8.83;;;5.90;;
7013;SDS011;3547;50.774;12.918;2022-11-20T15:22:43;8.47;;;5.30;;
7013;SDS011;3547;50.774;12.918;2022-11-20T15:25:13;10.17;;;5.93;;
7013;SDS011;3547;50.774;12.918;2022-11-20T15:27:40;9.87;;;6.17;;
7013;SDS011;3547;50.774;12.918;2022-11-20T15:32:42;7.30;;;4.97;;
7013;SDS011;3547;50.774;12.918;2022-11-20T15:35:12;8.03;;;5.50;;
7013;SDS011;3547;50.774;12.918;2022-11-20T15:37:40;8.67;;;5.63;;
7013;SDS011;3547;50.774;12.918;2022-11-20T15:40:07;10.83;;;6.27;;
7013;SDS011;3547;50.774;12.918;2022-11-20T15:42:34;8.83;;;5.47;;
7013;SDS011;3547;50.774;12.918;2022-11-20T15:45:00;10.57;;;6.33;;
7013;SDS011;3547;50.774;12.918;2022-11-20T15:47:28;10.43;;;6.00;;
7013;SDS011;3547;50.774;12.918;2022-11-20T15:49:58;10.30;;;5.97;;
7013;SDS011;3547;50.774;12.918;2022-11-20T15:52:25;11.23;;;5.73;;
7013;SDS011;3547;50.774;12.918;2022-11-20T15:54:51;9.33;;;5.40;;
7013;SDS011;3547;50.774;12.918;2022-11-20T15:57:18;8.03;;;5.70;;
7013;SDS011;3547;50.774;12.918;2022-11-20T15:59:44;8.97;;;5.90;;
7013;SDS011;3547;50.774;12.918;2022-11-20T16:02:10;9.37;;;6.43;;
7013;SDS011;3547;50.774;12.918;2022-11-20T16:04:37;10.80;;;6.40;;
7013;SDS011;3547;50.774;12.918;2022-11-20T16:07:04;8.43;;;5.80;;
7013;SDS011;3547;50.774;12.918;2022-11-20T16:09:30;10.23;;;6.03;;
7013;SDS011;3547;50.774;12.918;2022-11-20T16:11:56;9.57;;;6.13;;
7013;SDS011;3547;50.774;12.918;2022-11-20T16:14:26;12.87;;;6.50;;
7013;SDS011;3547;50.774;12.918;2022-11-20T16:17:11;9.70;;;6.60;;
7013;SDS011;3547;50.774;12.918;2022-11-20T16:19:38;12.77;;;7.10;;
7013;SDS011;3547;50.774;12.918;2022-11-20T16:22:04;8.13;;;5.97;;
7013;SDS011;3547;50.774;12.918;2022-11-20T16:24:30;8.90;;;6.23;;
7013;SDS011;3547;50.774;12.918;2022-11-20T16:26:56;10.67;;;7.07;;
7013;SDS011;3547;50.774;12.918;2022-11-20T16:29:23;10.53;;;7.17;;
7013;SDS011;3547;50.774;12.918;2022-11-20T16:31:49;9.87;;;6.10;;
7013;SDS011;3547;50.774;12.918;2022-11-20T16:34:15;13.73;;;6.80;;
7013;SDS011;3547;50.774;12.918;2022-11-20T16:36:42;14.67;;;6.83;;
7013;SDS011;3547;50.774;12.918;2022-11-20T16:39:10;9.83;;;6.17;;
7013;SDS011;3547;50.774;12.918;2022-11-20T16:41:37;13.23;;;7.43;;
7013;SDS011;3547;50.774;12.918;2022-11-20T16:44:07;10.17;;;6.27;;
7013;SDS011;3547;50.774;12.918;2022-11-20T16:46:34;9.80;;;5.83;;
7013;SDS011;3547;50.774;12.918;2022-11-20T16:49:02;10.63;;;6.43;;
7013;SDS011;3547;50.774;12.918;2022-11-20T16:51:30;11.63;;;6.87;;